Time;durP1;ratioP1;P1;durP2;ratioP2;P2;SDS_P1;SDS_P2;PMS_P1;PMS_P2;Temp;Humidity;BMP_temperature;BMP_pressure;BME280_temperature;BME280_humidity;BME280_pressure;Samples;Min_cycle;Max_cycle;Signal;HPM_P1;HPM_P2
2022/09/22 00:00:57;;;;;;;10.52;4.65;;;;;;;6.91;79.77;96944.75;4992820;28;20137;-74
2022/09/22 00:03:24;;;;;;;11.15;4.45;;;;;;;6.88;80.30;96943.41;4992884;28;20065;-75
2022/09/22 00:05:59;;;;;;;12.32;4.75;;;;;;;6.86;80.05;96947.50;4992659;28;20524;-75
2022/09/22 00:08:25;;;;;;;12.13;4.82;;;;;;;6.85;79.89;96949.41;4992682;28;20461;-74
2022/09/22 00:11:00;;;;;;;10.65;4.28;;;;;;;6.77;80.34;96936.44;4992596;28;20043;-74
2022/09/22 00:13:27;;;;;;;10.48;4.20;;;;;;;6.74;80.45;96937.81;4992808;28;20046;-75
2022/09/22 00:15:54;;;;;;;10.52;4.65;;;;;;;6.75;81.22;96933.22;4993137;28;20075;-74
2022/09/22 00:18:20;;;;;;;15.35;5.32;;;;;;;6.78;80.55;96927.22;4989355;28;20137;-74
2022/09/22 00:20:47;;;;;;;11.40;4.82;;;;;;;6.76;80.42;96932.13;4992006;28;20046;-75
2022/09/22 00:23:13;;;;;;;33.72;8.93;;;;;;;6.76;80.50;96930.22;4989696;28;20066;-74
2022/09/22 00:25:40;;;;;;;15.25;5.47;;;;;;;6.68;80.58;96927.28;4990174;28;20057;-74
2022/09/22 00:28:08;;;;;;;14.82;5.13;;;;;;;6.73;81.33;96929.97;4993544;28;20526;-74
2022/09/22 00:30:40;;;;;;;10.60;4.95;;;;;;;6.70;81.34;96925.13;4993526;28;20550;-74
2022/09/22 00:33:07;;;;;;;14.38;5.07;;;;;;;6.74;81.57;96926.19;4995520;28;20046;-75
2022/09/22 00:35:36;;;;;;;11.35;4.70;;;;;;;6.72;80.59;96922.94;4995605;28;20061;-75
2022/09/22 00:38:04;;;;;;;13.05;4.63;;;;;;;6.63;80.28;96920.03;4994737;28;20049;-75
2022/09/22 00:40:30;;;;;;;12.32;4.88;;;;;;;6.61;80.64;96918.66;4993565;28;20134;-74
2022/09/22 00:43:18;;;;;;;10.80;4.32;;;;;;;6.59;81.16;96908.13;4993218;28;20636;-74
2022/09/22 00:45:45;;;;;;;14.35;5.15;;;;;;;6.53;80.88;96915.47;4993080;28;20050;-74
2022/09/22 00:48:12;;;;;;;10.40;4.40;;;;;;;6.53;81.01;96909.25;4992802;28;20516;-74
2022/09/22 00:50:39;;;;;;;12.55;4.55;;;;;;;6.52;80.88;96903.03;4992131;28;20045;-74
2022/09/22 00:53:09;;;;;;;14.68;4.75;;;;;;;6.49;80.92;96892.75;4992503;28;20046;-75
2022/09/22 00:55:42;;;;;;;11.93;4.45;;;;;;;6.51;80.38;96895.16;4988373;28;20053;-74
2022/09/22 00:58:13;;;;;;;10.98;4.68;;;;;;;6.49;80.53;96892.75;4992287;28;20046;-74
2022/09/22 01:00:41;;;;;;;12.15;4.35;;;;;;;6.47;80.62;96894.09;4995304;28;20050;-75
2022/09/22 01:03:11;;;;;;;10.90;4.15;;;;;;;6.46;80.87;96887.88;4995980;28;20047;-74
2022/09/22 01:05:40;;;;;;;9.75;4.07;;;;;;;6.44;81.19;96890.06;4995714;28;20054;-75
2022/09/22 01:08:07;;;;;;;11.75;4.32;;;;;;;6.44;80.99;96890.06;4995908;28;20051;-75
2022/09/22 01:10:34;;;;;;;15.60;5.07;;;;;;;6.39;80.75;96890.09;4995718;28;20042;-74
2022/09/22 01:13:18;;;;;;;15.20;5.07;;;;;;;6.36;80.71;96887.94;4995566;28;20047;-75
2022/09/22 01:15:55;;;;;;;15.88;5.63;;;;;;;6.33;81.06;96887.69;4995821;28;20047;-75
2022/09/22 01:18:30;;;;;;;22.02;7.57;;;;;;;6.35;81.45;96891.72;4995408;28;20042;-74
2022/09/22 01:21:19;;;;;;;19.58;8.90;;;;;;;6.35;80.87;96894.44;4995435;28;20042;-74
2022/09/22 01:24:42;;;;;;;18.73;6.43;;;;;;;6.34;81.22;96887.41;4998705;28;20046;-75
2022/09/22 01:27:27;;;;;;;17.23;5.65;;;;;;;6.31;80.80;96889.84;4960029;28;20054;-74
2022/09/22 01:30:23;;;;;;;14.57;5.28;;;;;;;6.29;81.72;96882.03;4995492;28;20077;-75
2022/09/22 01:33:00;;;;;;;17.05;5.22;;;;;;;6.32;81.56;96876.06;4931343;28;20054;-74
2022/09/22 01:35:31;;;;;;;13.60;5.00;;;;;;;6.27;80.88;96870.69;4975614;28;20054;-75
2022/09/22 01:38:07;;;;;;;11.43;4.63;;;;;;;6.23;80.94;96875.84;4992726;28;20054;-75
2022/09/22 01:40:40;;;;;;;13.18;4.40;;;;;;;6.25;81.63;96864.72;4994560;28;20053;-74
2022/09/22 01:43:13;;;;;;;18.33;5.95;;;;;;;6.26;81.89;96871.75;4995072;28;20069;-74
2022/09/22 01:45:47;;;;;;;12.32;5.70;;;;;;;6.20;81.82;96867.47;4994991;28;20054;-74
2022/09/22 01:48:18;;;;;;;17.52;6.15;;;;;;;6.15;81.55;96862.06;4994694;28;20141;-74
2022/09/22 01:50:50;;;;;;;11.07;5.00;;;;;;;6.13;81.87;96867.75;4994992;28;20050;-74
2022/09/22 01:53:21;;;;;;;17.75;6.00;;;;;;;6.10;82.00;96870.19;4995412;28;20053;-74
2022/09/22 01:55:51;;;;;;;17.05;5.93;;;;;;;6.06;81.71;96871.88;4996187;28;20062;-74
2022/09/22 01:58:21;;;;;;;13.43;4.35;;;;;;;6.00;81.68;96874.59;4994450;28;20049;-75
2022/09/22 02:00:56;;;;;;;17.60;5.05;;;;;;;5.94;81.69;96875.66;4993187;28;20042;-75
2022/09/22 02:03:26;;;;;;;18.50;6.05;;;;;;;5.90;81.78;96880.00;4994431;28;20046;-74
2022/09/22 02:05:57;;;;;;;14.15;5.88;;;;;;;5.98;82.29;96875.94;4994506;28;20054;-75
2022/09/22 02:08:30;;;;;;;20.85;7.45;;;;;;;5.99;82.44;96864.81;4994878;28;20047;-76
2022/09/22 02:11:02;;;;;;;21.15;8.25;;;;;;;6.04;82.54;96874.00;4993622;28;20082;-74
2022/09/22 02:13:28;;;;;;;25.25;10.40;;;;;;;5.96;82.53;96876.22;4994458;28;20145;-74
2022/09/22 02:16:02;;;;;;;21.38;8.05;;;;;;;5.99;83.15;96881.06;4994599;28;20046;-75
2022/09/22 02:18:33;;;;;;;19.58;7.70;;;;;;;6.03;83.07;96883.22;4994334;28;20046;-75
2022/09/22 02:21:01;;;;;;;21.15;7.63;;;;;;;6.06;83.31;96877.28;4994047;28;20046;-76
2022/09/22 02:23:31;;;;;;;21.42;7.40;;;;;;;6.06;83.35;96878.06;4996431;28;20073;-75
2022/09/22 02:26:00;;;;;;;15.75;6.38;;;;;;;6.09;84.07;96871.28;4994380;28;20077;-75
2022/09/22 02:28:29;;;;;;;18.55;6.28;;;;;;;6.11;83.96;96879.91;4994261;28;20054;-75
2022/09/22 02:31:00;;;;;;;16.52;5.80;;;;;;;6.14;84.18;96871.28;4993898;28;20490;-74
2022/09/22 02:33:28;;;;;;;15.55;6.18;;;;;;;6.14;83.81;96868.56;4994268;28;20053;-74
2022/09/22 02:36:01;;;;;;;14.25;5.72;;;;;;;6.14;82.93;96865.88;4994436;28;20062;-74
2022/09/22 02:38:35;;;;;;;16.20;5.90;;;;;;;6.11;82.62;96866.41;4993848;28;20506;-75
2022/09/22 02:41:09;;;;;;;15.90;5.95;;;;;;;6.07;82.56;96873.47;4993630;28;20153;-74
2022/09/22 02:43:43;;;;;;;17.40;6.85;;;;;;;6.05;83.29;96862.09;4993816;28;20061;-74
2022/09/22 02:46:18;;;;;;;21.67;8.45;;;;;;;6.05;83.13;96864.81;4993963;28;20050;-75
2022/09/22 02:48:48;;;;;;;21.23;8.63;;;;;;;6.05;83.59;96859.41;4993713;28;20570;-75
2022/09/22 02:51:17;;;;;;;20.77;8.63;;;;;;;6.08;83.27;96870.47;4993821;28;20046;-74
2022/09/22 02:53:44;;;;;;;24.17;9.07;;;;;;;6.06;82.59;96861.03;4996908;28;20513;-74
2022/09/22 02:56:10;;;;;;;19.48;8.10;;;;;;;6.06;82.74;96864.56;4993832;28;20054;-74
2022/09/22 02:58:37;;;;;;;18.63;7.65;;;;;;;5.99;82.63;96875.63;4994462;28;20050;-76
2022/09/22 03:01:03;;;;;;;15.77;7.00;;;;;;;5.98;82.21;96865.91;4994014;28;20050;-75
2022/09/22 03:03:32;;;;;;;22.67;8.45;;;;;;;5.96;82.39;96867.28;4993804;28;20050;-74
2022/09/22 03:05:58;;;;;;;22.38;8.15;;;;;;;5.95;82.08;96877.31;4993577;28;20058;-75
2022/09/22 03:08:25;;;;;;;22.02;8.50;;;;;;;5.96;82.45;96876.22;4985551;28;20047;-75
2022/09/22 03:10:51;;;;;;;26.85;9.05;;;;;;;5.92;82.53;96872.44;4988794;28;20053;-76
2022/09/22 03:13:18;;;;;;;16.10;6.53;;;;;;;5.84;79.85;96874.84;4993873;28;20046;-77
2022/09/22 03:15:44;;;;;;;20.67;7.25;;;;;;;5.74;80.06;96870.28;4993836;28;20056;-74
2022/09/22 03:18:11;;;;;;;16.70;6.55;;;;;;;5.67;80.55;96875.97;4996980;28;20050;-74
2022/09/22 03:20:39;;;;;;;15.52;6.10;;;;;;;5.67;82.18;96875.16;4998843;28;20061;-75
2022/09/22 03:23:06;;;;;;;17.48;6.78;;;;;;;5.65;82.25;96882.75;4997320;28;20053;-74
2022/09/22 03:25:33;;;;;;;19.15;7.07;;;;;;;5.62;82.24;96875.19;5002367;28;20136;-75
2022/09/22 03:27:59;;;;;;;18.02;8.30;;;;;;;5.62;82.51;96873.28;4999415;28;20057;-74
2022/09/22 03:30:26;;;;;;;21.13;9.13;;;;;;;5.60;82.89;96869.25;4999638;28;20083;-75
2022/09/22 03:32:52;;;;;;;30.60;11.10;;;;;;;5.61;83.38;96873.56;4999246;28;20046;-76
2022/09/22 03:35:19;;;;;;;18.10;8.88;;;;;;;5.64;83.48;96864.94;5002017;28;20050;-75
2022/09/22 03:37:46;;;;;;;19.92;8.98;;;;;;;5.62;82.59;96867.06;5001532;28;20126;-74
2022/09/22 03:40:13;;;;;;;23.52;8.63;;;;;;;5.60;82.25;96866.56;4996818;28;20402;-75
2022/09/22 03:42:40;;;;;;;17.48;8.32;;;;;;;5.62;82.43;96861.66;4993541;28;20054;-74
2022/09/22 03:45:08;;;;;;;18.95;7.88;;;;;;;5.62;82.71;96864.38;4992887;28;20058;-76
2022/09/22 03:47:34;;;;;;;21.30;9.00;;;;;;;5.54;81.53;96862.25;4993259;28;20050;-74
2022/09/22 03:50:01;;;;;;;19.27;8.18;;;;;;;5.53;82.16;96863.31;4993566;28;20049;-75
2022/09/22 03:52:28;;;;;;;27.92;11.15;;;;;;;5.42;82.01;96855.22;4992728;28;20052;-75
2022/09/22 03:54:56;;;;;;;24.08;10.68;;;;;;;5.29;82.23;96853.09;4995972;28;20122;-75
2022/09/22 03:57:22;;;;;;;29.60;11.27;;;;;;;5.36;82.40;96853.59;4992766;28;20057;-75
2022/09/22 03:59:49;;;;;;;25.48;11.07;;;;;;;5.42;82.85;96855.22;4993721;28;20042;-75
2022/09/22 04:02:15;;;;;;;20.67;9.70;;;;;;;5.41;82.96;96860.91;4993317;28;20387;-75
2022/09/22 04:04:42;;;;;;;23.95;9.60;;;;;;;5.40;82.26;96860.09;4993530;28;20050;-75
2022/09/22 04:07:08;;;;;;;22.13;8.52;;;;;;;5.42;81.87;96857.09;4993543;28;20477;-78
2022/09/22 04:09:35;;;;;;;20.50;9.00;;;;;;;5.36;81.90;96864.41;4993285;28;20053;-74
2022/09/22 04:12:03;;;;;;;17.80;8.48;;;;;;;5.36;82.24;96864.41;4999381;28;20069;-74
2022/09/22 04:14:29;;;;;;;26.65;9.85;;;;;;;5.33;81.69;96856.88;4996668;28;20050;-74
2022/09/22 04:16:56;;;;;;;19.30;8.85;;;;;;;5.24;81.48;96861.19;4995895;28;20078;-75
2022/09/22 04:19:22;;;;;;;20.25;8.20;;;;;;;5.24;81.84;96863.88;4995510;28;20058;-75
2022/09/22 04:21:49;;;;;;;25.15;9.85;;;;;;;5.19;81.92;96863.88;4995005;28;20050;-75
2022/09/22 04:24:16;;;;;;;24.10;9.90;;;;;;;5.16;82.19;96859.03;4993938;28;20046;-75
2022/09/22 04:26:43;;;;;;;24.85;10.35;;;;;;;5.13;82.17;96860.38;4995476;28;20042;-74
2022/09/22 04:29:10;;;;;;;26.10;9.88;;;;;;;5.14;82.47;96855.78;4977074;28;20399;-75
2022/09/22 04:31:37;;;;;;;23.73;9.75;;;;;;;5.15;82.37;96860.09;4994133;28;20053;-75
2022/09/22 04:34:04;;;;;;;20.70;9.00;;;;;;;5.10;82.30;96854.72;4993658;28;20057;-75
2022/09/22 04:36:30;;;;;;;20.75;7.50;;;;;;;5.15;83.11;96862.81;4994042;28;20089;-74
2022/09/22 04:38:57;;;;;;;16.02;6.95;;;;;;;5.19;83.07;96862.00;4993499;28;20043;-74
2022/09/22 04:41:24;;;;;;;16.25;7.03;;;;;;;5.16;83.17;96869.81;4992423;28;20057;-74
2022/09/22 04:43:50;;;;;;;14.07;6.22;;;;;;;5.18;83.41;96863.09;4993138;28;20042;-74
2022/09/22 04:46:18;;;;;;;14.77;6.22;;;;;;;5.16;82.94;96869.81;4992456;28;20050;-75
2022/09/22 04:48:44;;;;;;;12.00;6.07;;;;;;;5.14;83.16;96872.00;4992527;28;20066;-77
2022/09/22 04:51:11;;;;;;;14.90;5.97;;;;;;;5.10;83.57;96874.41;4991793;28;20049;-77
2022/09/22 04:53:37;;;;;;;19.50;6.78;;;;;;;5.09;83.60;96872.00;4991761;28;20053;-75
2022/09/22 04:56:07;;;;;;;18.23;6.22;;;;;;;5.02;83.07;96872.28;4989781;28;20068;-74
2022/09/22 04:58:33;;;;;;;19.92;6.47;;;;;;;4.97;82.93;96878.47;4989604;28;20054;-73
2022/09/22 05:01:04;;;;;;;13.68;5.88;;;;;;;4.91;82.79;96884.94;4990701;28;20050;-75
2022/09/22 05:03:36;;;;;;;15.18;6.72;;;;;;;4.85;82.84;96883.28;5001850;28;20045;-77
2022/09/22 05:06:03;;;;;;;22.88;7.70;;;;;;;4.88;83.26;96885.47;5003003;28;20054;-77
2022/09/22 05:08:30;;;;;;;18.42;7.10;;;;;;;4.88;83.39;96880.06;4992896;28;20051;-77
2022/09/22 05:10:59;;;;;;;11.98;6.00;;;;;;;4.91;83.67;96879.56;4993630;28;20052;-78
2022/09/22 05:13:25;;;;;;;16.25;6.55;;;;;;;4.93;84.23;96882.78;4993196;28;20072;-76
2022/09/22 05:15:52;;;;;;;18.58;7.38;;;;;;;5.02;84.23;96890.34;4990904;28;20058;-76
2022/09/22 05:18:19;;;;;;;21.70;7.72;;;;;;;5.01;83.96;96883.31;4990286;28;20057;-76
2022/09/22 05:20:47;;;;;;;20.98;7.35;;;;;;;5.04;84.47;96882.78;4989725;28;20062;-77
2022/09/22 05:23:14;;;;;;;23.20;8.05;;;;;;;5.00;84.17;96892.50;4990396;28;20061;-75
2022/09/22 05:25:45;;;;;;;19.73;7.65;;;;;;;5.00;84.20;96892.50;4990113;28;20057;-76
2022/09/22 05:28:12;;;;;;;21.35;6.70;;;;;;;4.99;84.05;96889.00;4999565;28;20042;-76
2022/09/22 05:30:39;;;;;;;16.85;6.32;;;;;;;4.95;83.88;96890.59;4989751;28;20077;-75
2022/09/22 05:33:05;;;;;;;32.25;8.95;;;;;;;5.00;84.51;96893.31;4988525;28;20077;-75
2022/09/22 05:35:32;;;;;;;31.42;9.48;;;;;;;5.07;85.12;96904.66;4976601;28;20046;-76
2022/09/22 05:38:00;;;;;;;36.20;9.75;;;;;;;5.14;85.67;96902.50;5008800;28;20387;-76
2022/09/22 05:40:27;;;;;;;13.05;6.00;;;;;;;5.12;85.55;96896.56;5011986;28;20137;-77
2022/09/22 05:42:53;;;;;;;13.80;5.78;;;;;;;5.11;85.29;96907.63;5015910;28;20042;-74
2022/09/22 05:45:20;;;;;;;11.73;5.82;;;;;;;5.12;85.11;96903.84;4997751;28;20450;-74
2022/09/22 05:47:47;;;;;;;15.25;6.35;;;;;;;5.12;85.19;96911.97;4996840;28;20039;-74
2022/09/22 05:50:15;;;;;;;21.38;8.15;;;;;;;5.22;86.09;96906.56;5007615;28;20220;-76
2022/09/22 05:52:42;;;;;;;35.78;10.38;;;;;;;5.38;87.29;96912.78;4996472;28;20113;-75
2022/09/22 05:55:11;;;;;;;16.45;7.30;;;;;;;5.44;87.69;96911.69;5003588;28;20051;-75
2022/09/22 05:57:38;;;;;;;30.30;9.25;;;;;;;5.54;87.90;96913.56;4995407;28;20051;-75
2022/09/22 06:00:06;;;;;;;32.88;10.48;;;;;;;5.64;88.14;96913.56;4989893;28;20070;-76
2022/09/22 06:02:32;;;;;;;30.70;9.88;;;;;;;5.72;88.55;96910.28;4990583;28;20042;-73
2022/09/22 06:04:59;;;;;;;35.72;9.80;;;;;;;5.78;88.33;96908.38;4988849;28;20046;-75
2022/09/22 06:07:26;;;;;;;33.88;10.23;;;;;;;5.87;87.88;96910.25;5007635;28;20662;-74
2022/09/22 06:09:53;;;;;;;34.08;10.27;;;;;;;5.91;87.37;96900.56;4999677;28;20042;-75
2022/09/22 06:12:21;;;;;;;39.20;11.63;;;;;;;5.96;87.63;96897.03;4988214;28;20038;-75
2022/09/22 06:14:47;;;;;;;30.25;10.25;;;;;;;5.94;87.11;96891.88;4988227;28;20056;-73
2022/09/22 06:17:14;;;;;;;33.85;10.70;;;;;;;5.73;87.09;96890.28;4987789;28;20073;-74
2022/09/22 06:19:42;;;;;;;38.03;11.32;;;;;;;5.71;87.77;96892.47;4987071;28;20054;-74
2022/09/22 06:22:10;;;;;;;36.58;11.00;;;;;;;5.86;87.62;96897.84;4986568;28;20124;-75
2022/09/22 06:24:36;;;;;;;36.03;10.68;;;;;;;6.01;87.67;96895.13;4988045;28;20093;-74
2022/09/22 06:27:03;;;;;;;32.60;10.18;;;;;;;6.13;87.85;96896.69;4988538;28;20050;-76
2022/09/22 06:29:30;;;;;;;34.95;11.25;;;;;;;6.27;88.02;96895.03;4988785;28;20047;-74
2022/09/22 06:31:57;;;;;;;30.35;10.05;;;;;;;6.43;87.88;96893.88;4985780;28;20441;-76
2022/09/22 06:34:25;;;;;;;33.40;10.18;;;;;;;6.58;87.43;96900.28;4988498;28;20045;-76
2022/09/22 06:36:54;;;;;;;36.33;11.20;;;;;;;6.64;87.16;96896.47;4989186;28;20117;-75
2022/09/22 06:39:21;;;;;;;36.72;10.60;;;;;;;6.83;87.07;96897.41;4990967;28;20129;-75
2022/09/22 06:41:48;;;;;;;32.72;10.40;;;;;;;6.84;86.13;96896.34;4989609;28;20054;-76
2022/09/22 06:44:15;;;;;;;34.47;11.23;;;;;;;7.00;86.41;96902.47;4989827;28;20046;-75
2022/09/22 06:46:45;;;;;;;35.40;10.68;;;;;;;7.15;86.85;96904.25;4989640;28;20674;-76
2022/09/22 06:49:12;;;;;;;35.88;11.10;;;;;;;7.26;86.12;96911.22;4988832;28;20047;-75
2022/09/22 06:51:39;;;;;;;31.70;9.68;;;;;;;7.27;85.09;96902.81;4987978;28;20158;-77
2022/09/22 06:54:06;;;;;;;36.28;9.88;;;;;;;7.03;83.00;96902.69;4989091;28;20053;-75
2022/09/22 06:56:38;;;;;;;32.95;9.07;;;;;;;7.42;83.42;96901.06;4989702;28;20054;-78
2022/09/22 06:59:11;;;;;;;31.67;8.82;;;;;;;7.50;81.22;96903.97;4991169;28;20134;-76
2022/09/22 07:01:37;;;;;;;32.17;9.27;;;;;;;7.78;80.61;96901.56;4989601;28;20144;-76
2022/09/22 07:04:05;;;;;;;33.85;8.85;;;;;;;8.49;77.55;96895.31;4988206;28;20050;-76
2022/09/22 07:06:32;;;;;;;33.00;9.50;;;;;;;9.74;73.22;96902.13;4993250;28;20054;-77
2022/09/22 07:08:59;;;;;;;23.20;7.20;;;;;;;10.47;67.31;96901.31;5009049;28;20049;-77
2022/09/22 07:11:25;;;;;;;26.67;7.13;;;;;;;11.48;63.73;96900.97;4991352;28;20764;-76
2022/09/22 07:13:53;;;;;;;37.58;8.95;;;;;;;11.94;61.17;96899.81;4986546;28;20042;-75
2022/09/22 07:16:22;;;;;;;9.32;3.88;;;;;;;13.01;58.99;96893.25;4995574;28;20049;-76
2022/09/22 07:18:50;;;;;;;11.00;4.20;;;;;;;13.96;55.44;96893.19;4995254;28;20046;-76
2022/09/22 07:21:19;;;;;;;11.15;4.22;;;;;;;14.59;55.00;96898.91;4994178;28;20057;-74
2022/09/22 07:23:48;;;;;;;10.75;4.18;;;;;;;15.28;52.70;96892.16;4997479;28;20046;-74
2022/09/22 07:26:17;;;;;;;9.60;3.55;;;;;;;15.63;50.35;96893.50;4974949;28;20046;-74
2022/09/22 07:28:45;;;;;;;7.43;3.17;;;;;;;16.00;49.30;96903.81;4974923;28;20054;-76
2022/09/22 07:31:14;;;;;;;9.25;3.65;;;;;;;15.74;49.13;96910.38;4988971;28;20552;-76
2022/09/22 07:33:42;;;;;;;10.25;3.75;;;;;;;16.04;49.73;96904.75;4996034;28;20050;-76
2022/09/22 07:36:12;;;;;;;8.93;3.08;;;;;;;15.47;49.00;96899.94;4996434;28;20054;-77
2022/09/22 07:38:42;;;;;;;12.32;4.00;;;;;;;15.48;49.69;96896.03;4998367;28;20493;-79
2022/09/22 07:41:10;;;;;;;11.13;3.47;;;;;;;15.57;49.95;96899.53;4995712;28;20047;-76
2022/09/22 07:43:37;;;;;;;9.77;3.53;;;;;;;15.59;51.20;96895.28;4994193;28;20054;-75
2022/09/22 07:46:04;;;;;;;9.10;3.40;;;;;;;15.58;52.95;96890.13;4996526;28;20046;-75
2022/09/22 07:48:41;;;;;;;12.70;3.92;;;;;;;15.57;51.27;96897.56;4998402;28;20047;-77
2022/09/22 07:51:10;;;;;;;8.90;3.20;;;;;;;14.94;52.75;96887.75;4979296;28;20046;-76
2022/09/22 07:53:38;;;;;;;9.10;3.17;;;;;;;14.75;54.38;96894.47;4983528;28;20046;-75
2022/09/22 07:56:08;;;;;;;7.15;3.25;;;;;;;14.67;56.25;96895.34;4997674;28;20137;-76
2022/09/22 07:58:35;;;;;;;7.65;3.38;;;;;;;14.63;55.16;96894.38;4997565;28;20050;-75
2022/09/22 08:01:06;;;;;;;9.02;3.47;;;;;;;14.49;55.37;96893.81;4997027;28;20054;-76
2022/09/22 08:03:33;;;;;;;9.73;3.75;;;;;;;14.23;54.88;96893.88;4997708;28;20069;-76
2022/09/22 08:06:07;;;;;;;9.23;3.78;;;;;;;13.99;56.49;96889.81;4996915;28;20062;-76
2022/09/22 08:08:33;;;;;;;11.35;4.47;;;;;;;13.33;56.86;96894.72;4998670;28;20149;-75
2022/09/22 08:11:04;;;;;;;15.50;4.57;;;;;;;13.21;60.12;96892.66;4998469;28;20054;-76
2022/09/22 08:13:33;;;;;;;11.93;4.28;;;;;;;13.23;59.41;96895.03;4978949;28;20130;-76
2022/09/22 08:16:00;;;;;;;7.78;4.13;;;;;;;13.24;59.18;96896.66;4991361;28;20070;-76
2022/09/22 08:18:26;;;;;;;10.73;4.75;;;;;;;12.98;59.71;96896.59;5000149;28;20050;-77
2022/09/22 08:20:53;;;;;;;9.55;4.10;;;;;;;13.02;61.78;96895.66;4998166;28;20054;-76
2022/09/22 08:23:19;;;;;;;10.15;4.22;;;;;;;12.73;60.63;96893.50;4999240;28;20049;-76
2022/09/22 08:25:46;;;;;;;11.02;4.43;;;;;;;12.61;61.32;96904.25;4997796;28;20053;-76
2022/09/22 08:28:13;;;;;;;8.77;4.00;;;;;;;12.80;62.05;96896.59;4977795;28;20043;-74
2022/09/22 08:30:45;;;;;;;9.70;3.70;;;;;;;12.97;60.88;96895.00;4991554;28;20054;-75
2022/09/22 08:33:12;;;;;;;9.25;3.70;;;;;;;13.08;60.44;96893.56;4997709;28;20101;-76
2022/09/22 08:35:38;;;;;;;10.48;3.90;;;;;;;13.17;60.39;96899.84;4997293;28;20065;-76
2022/09/22 08:38:05;;;;;;;10.23;4.05;;;;;;;13.18;60.02;96890.50;4997661;28;20050;-76
2022/09/22 08:40:31;;;;;;;12.32;4.28;;;;;;;13.25;60.27;96890.84;4998568;28;20074;-76
2022/09/22 08:43:00;;;;;;;10.05;4.15;;;;;;;13.14;59.44;96888.72;5000754;28;20475;-75
2022/09/22 08:45:32;;;;;;;11.10;4.28;;;;;;;13.20;60.43;96893.72;4999875;28;20059;-75
2022/09/22 08:53:47;;;;;;;10.70;3.33;;;;;;;13.10;56.57;96880.34;4999389;28;20057;-75
2022/09/22 08:56:20;;;;;;;11.65;4.00;;;;;;;13.18;59.83;96885.03;4998582;28;20150;-74
2022/09/22 08:58:57;;;;;;;6.97;2.95;;;;;;;13.29;59.55;96880.88;4997471;28;20146;-76
2022/09/22 09:01:39;;;;;;;8.93;3.25;;;;;;;13.43;60.14;96885.41;4996907;28;20076;-76
2022/09/22 09:04:33;;;;;;;8.40;3.03;;;;;;;13.44;59.11;96884.25;4997895;28;20062;-75
2022/09/22 09:07:07;;;;;;;10.07;2.95;;;;;;;13.32;58.24;96885.72;4999289;28;20486;-75
2022/09/22 09:09:46;;;;;;;11.23;3.08;;;;;;;13.44;60.45;96884.25;4978108;28;20047;-76
2022/09/22 09:12:37;;;;;;;7.95;2.75;;;;;;;13.22;57.62;96877.03;4979268;28;20050;-75
2022/09/22 09:15:26;;;;;;;11.48;3.58;;;;;;;13.32;58.52;96879.44;4982320;28;20046;-76
2022/09/22 09:17:57;;;;;;;11.18;3.35;;;;;;;13.07;58.09;96881.81;4981913;28;20706;-75
2022/09/22 09:20:34;;;;;;;8.77;2.97;;;;;;;12.95;57.87;96875.41;4998777;28;20046;-76
2022/09/22 09:23:02;;;;;;;10.30;2.65;;;;;;;13.12;57.41;96869.91;5001307;28;20462;-76
2022/09/22 09:25:35;;;;;;;8.45;2.58;;;;;;;13.17;58.31;96875.22;5001958;28;20050;-76
2022/09/22 09:28:06;;;;;;;8.35;2.78;;;;;;;13.13;57.01;96878.94;5002364;28;20043;-76
2022/09/22 09:30:41;;;;;;;11.38;3.38;;;;;;;13.20;57.76;96871.03;5001464;28;20049;-76
2022/09/22 09:33:21;;;;;;;10.98;2.85;;;;;;;13.37;58.51;96871.06;4999602;28;20038;-75
2022/09/22 09:35:52;;;;;;;11.15;2.97;;;;;;;13.62;60.37;96872.16;4980190;28;20152;-76
2022/09/22 09:38:25;;;;;;;10.10;2.90;;;;;;;13.61;57.71;96875.22;5001320;28;20066;-75
2022/09/22 09:40:55;;;;;;;12.40;3.08;;;;;;;13.72;56.97;96873.75;4996898;28;20085;-73
2022/09/22 09:43:23;;;;;;;14.85;4.00;;;;;;;13.96;56.92;96865.00;4976405;28;20119;-74
2022/09/22 09:46:02;;;;;;;5.90;2.03;;;;;;;13.87;54.82;96872.41;4976714;28;20050;-76
2022/09/22 09:48:35;;;;;;;6.30;2.05;;;;;;;14.02;53.67;96866.41;4976284;28;20059;-75
2022/09/22 09:51:05;;;;;;;13.35;2.97;;;;;;;14.19;55.22;96862.81;4976839;28;20051;-75
2022/09/22 09:53:33;;;;;;;11.50;2.85;;;;;;;14.25;53.60;96872.44;4995548;28;20046;-74
2022/09/22 09:56:00;;;;;;;9.82;2.83;;;;;;;14.33;54.53;96858.72;4958882;28;20166;-75
2022/09/22 10:01:13;;;;;;;9.15;2.28;;;;;;;14.65;55.41;96864.69;4976262;28;20583;-77
2022/09/22 10:03:45;;;;;;;9.52;2.55;;;;;;;14.70;52.24;96861.75;4983518;28;20043;-74
2022/09/22 10:06:22;;;;;;;10.40;2.67;;;;;;;14.79;53.00;96859.78;4995094;28;20054;-74
2022/09/22 10:08:50;;;;;;;7.47;2.17;;;;;;;14.93;52.26;96864.19;4994953;28;20089;-74
2022/09/22 10:11:28;;;;;;;8.27;2.28;;;;;;;14.93;52.03;96855.97;4994677;28;20060;-75
2022/09/22 10:13:56;;;;;;;7.85;2.13;;;;;;;14.74;50.43;96862.72;4995476;28;20042;-74
2022/09/22 10:16:24;;;;;;;9.10;2.22;;;;;;;14.72;50.51;96858.69;4995165;28;20046;-76
2022/09/22 10:19:01;;;;;;;6.50;1.60;;;;;;;14.68;50.19;96853.09;4995305;28;20050;-75
2022/09/22 10:21:29;;;;;;;13.63;3.25;;;;;;;14.57;51.01;96849.94;4998575;28;20057;-75
2022/09/22 10:23:57;;;;;;;13.82;3.08;;;;;;;14.57;51.76;96847.19;4995195;28;20421;-76
2022/09/22 10:26:26;;;;;;;9.57;2.53;;;;;;;14.65;51.85;96842.78;4994843;28;20256;-75
2022/09/22 10:29:17;;;;;;;7.57;1.92;;;;;;;14.67;51.35;96836.94;4997417;28;20045;-75
2022/09/22 10:32:00;;;;;;;8.95;2.22;;;;;;;14.67;51.50;96843.25;5009673;28;20463;-75
2022/09/22 10:34:30;;;;;;;9.98;2.42;;;;;;;14.62;51.36;96843.47;4994283;28;20149;-75
2022/09/22 10:36:59;;;;;;;7.00;1.85;;;;;;;14.66;51.77;96838.88;4994927;28;20455;-74
2022/09/22 10:39:35;;;;;;;11.10;3.10;;;;;;;14.56;51.25;96842.00;4994240;28;20078;-75
2022/09/22 10:42:05;;;;;;;8.15;2.20;;;;;;;14.36;50.33;96836.16;4995166;28;20437;-75
2022/09/22 10:44:32;;;;;;;10.45;2.50;;;;;;;14.41;52.31;96826.94;4995028;28;20042;-74
2022/09/22 10:47:24;;;;;;;11.00;2.65;;;;;;;14.41;52.91;96828.84;4994725;28;20050;-77
2022/09/22 10:50:08;;;;;;;7.18;2.75;;;;;;;14.52;52.57;96816.44;4994885;28;20046;-76
2022/09/22 10:52:43;;;;;;;7.90;2.13;;;;;;;14.54;52.71;96825.91;4994265;28;20042;-74
2022/09/22 10:55:21;;;;;;;6.80;2.15;;;;;;;14.52;51.29;96827.41;4995000;28;20046;-75
2022/09/22 10:58:06;;;;;;;5.78;2.50;;;;;;;14.45;51.62;96825.13;4994378;28;20722;-76
2022/09/22 11:00:34;;;;;;;9.98;2.67;;;;;;;14.50;49.70;96835.13;4993373;28;20085;-74
2022/09/22 11:03:27;;;;;;;8.95;2.50;;;;;;;14.58;50.20;96832.34;4993888;28;20131;-75
2022/09/22 11:14:51;;;;;;;6.32;1.90;;;;;;;14.68;47.18;96830.34;4994252;28;20058;-78
2022/09/22 11:17:31;;;;;;;7.88;2.35;;;;;;;14.79;49.46;96826.09;4993804;28;20464;-77
2022/09/22 11:20:28;;;;;;;8.48;2.20;;;;;;;14.86;47.58;96829.88;4994625;28;20057;-76
2022/09/22 11:23:23;;;;;;;9.10;2.58;;;;;;;14.84;48.06;96829.44;4988987;28;20138;-74
2022/09/22 11:26:16;;;;;;;6.55;2.42;;;;;;;14.91;49.60;96828.09;4995228;28;20046;-78
2022/09/22 11:28:53;;;;;;;8.15;2.45;;;;;;;15.05;48.18;96825.88;4994931;28;20129;-75
2022/09/22 11:31:36;;;;;;;8.00;2.45;;;;;;;15.11;48.11;96832.78;4994258;28;20049;-76
2022/09/22 11:34:25;;;;;;;10.35;2.72;;;;;;;15.09;48.06;96826.81;4994216;28;20561;-78
2022/09/22 11:36:58;;;;;;;6.68;2.08;;;;;;;15.23;48.02;96819.09;5013995;23;20498;-77
2022/09/22 11:39:44;;;;;;;9.93;2.78;;;;;;;15.29;48.76;96812.25;5015304;28;20038;-77
2022/09/22 11:42:23;;;;;;;8.40;2.70;;;;;;;15.44;48.47;96815.50;4994791;28;20050;-77
2022/09/22 11:45:03;;;;;;;7.13;2.47;;;;;;;15.23;46.57;96815.56;5011173;28;20049;-77
2022/09/22 11:47:47;;;;;;;6.75;2.15;;;;;;;15.27;46.57;96809.06;5014775;28;20046;-77
2022/09/22 11:50:35;;;;;;;7.55;2.40;;;;;;;15.32;47.36;96808.84;5015616;28;20092;-77
2022/09/22 11:53:24;;;;;;;7.38;2.50;;;;;;;15.48;47.62;96813.72;5000730;28;20138;-77
2022/09/22 11:56:10;;;;;;;8.25;2.55;;;;;;;15.40;47.01;96810.72;4980984;28;20043;-77
2022/09/22 11:58:40;;;;;;;8.20;2.80;;;;;;;15.47;46.37;96806.63;4978111;28;20047;-77
2022/09/22 12:01:11;;;;;;;7.82;2.58;;;;;;;15.67;45.75;96805.00;4976807;28;20074;-78
2022/09/22 12:03:41;;;;;;;8.70;2.80;;;;;;;15.72;46.23;96800.09;4976534;28;20047;-77
2022/09/22 12:06:12;;;;;;;9.63;2.83;;;;;;;15.51;45.01;96802.06;4975094;28;20595;-76